Time;durP1;ratioP1;P1;durP2;ratioP2;P2;SDS_P1;SDS_P2;PMS_P1;PMS_P2;Temp;Humidity;BMP_temperature;BMP_pressure;BME280_temperature;BME280_humidity;BME280_pressure;Samples;Min_cycle;Max_cycle;Signal;HPM_P1;HPM_P2
2022/12/03 00:01:49;;;;;;;24.77;14.25;;;3.70;99.90;;;;;;6211034;23;20020;-82
2022/12/03 00:04:15;;;;;;;23.63;14.65;;;3.90;99.90;;;;;;6183868;23;20012;-83
2022/12/03 00:06:41;;;;;;;26.48;14.15;;;3.80;99.90;;;;;;6210365;23;20116;-85
2022/12/03 00:09:07;;;;;;;23.10;13.05;;;3.90;99.90;;;;;;6207945;23;20051;-84
2022/12/03 00:11:32;;;;;;;27.00;14.00;;;3.80;99.90;;;;;;6208084;23;20019;-80
2022/12/03 00:13:58;;;;;;;27.65;13.68;;;3.90;99.90;;;;;;6207066;23;20020;-86
2022/12/03 00:16:24;;;;;;;21.63;13.52;;;4.00;99.90;;;;;;6207853;23;20035;-83
2022/12/03 00:18:49;;;;;;;22.80;13.63;;;3.80;99.90;;;;;;6210850;23;20020;-81
2022/12/03 00:21:15;;;;;;;23.50;13.05;;;4.10;99.90;;;;;;6212684;23;20039;-81
2022/12/03 00:23:41;;;;;;;23.85;13.25;;;4.00;99.90;;;;;;6187564;23;20367;-83
2022/12/03 00:26:06;;;;;;;24.17;13.80;;;4.10;99.90;;;;;;6212727;23;20797;-84
2022/12/03 00:28:32;;;;;;;19.20;12.35;;;4.10;99.90;;;;;;6211028;23;20087;-82
2022/12/03 00:30:58;;;;;;;21.55;13.40;;;4.00;99.90;;;;;;6189959;23;20012;-87
2022/12/03 00:33:23;;;;;;;19.60;11.75;;;3.90;99.90;;;;;;6191550;23;20016;-82
2022/12/03 00:35:49;;;;;;;22.27;12.90;;;4.10;99.90;;;;;;6216031;23;20008;-82
2022/12/03 00:38:14;;;;;;;20.25;13.30;;;4.00;99.90;;;;;;6213922;23;20355;-80
2022/12/03 00:40:42;;;;;;;21.55;12.93;;;4.10;99.90;;;;;;6212601;23;20024;-81
2022/12/03 00:43:08;;;;;;;21.33;12.38;;;4.20;99.90;;;;;;6189138;23;20008;-82
2022/12/03 00:45:33;;;;;;;22.52;13.07;;;4.20;99.90;;;;;;6213628;23;20443;-82
2022/12/03 00:47:59;;;;;;;20.02;13.13;;;4.20;99.90;;;;;;6188253;23;20051;-82
2022/12/03 00:50:25;;;;;;;22.45;12.70;;;4.10;99.90;;;;;;6213960;23;20024;-81
2022/12/03 00:52:53;;;;;;;22.30;12.48;;;4.20;99.90;;;;;;6213115;23;20012;-83
2022/12/03 00:55:20;;;;;;;20.33;12.63;;;4.20;99.90;;;;;;6212352;23;20023;-81
2022/12/03 00:57:46;;;;;;;20.10;12.98;;;4.10;99.90;;;;;;6241440;23;20099;-84
2022/12/03 01:00:13;;;;;;;23.42;13.65;;;4.10;99.90;;;;;;6166775;23;20016;-85
2022/12/03 01:02:38;;;;;;;18.65;12.00;;;4.00;99.90;;;;;;6191722;23;20016;-85
2022/12/03 01:05:05;;;;;;;17.80;11.38;;;4.10;99.90;;;;;;6216366;23;20012;-83
2022/12/03 01:07:31;;;;;;;20.50;11.98;;;4.20;99.90;;;;;;6218578;23;20463;-84
2022/12/03 01:09:56;;;;;;;21.67;13.50;;;4.10;99.90;;;;;;6216697;23;20016;-84
2022/12/03 01:12:22;;;;;;;20.45;13.23;;;4.20;99.90;;;;;;6213491;23;20016;-86
2022/12/03 01:14:48;;;;;;;21.77;11.93;;;4.20;99.90;;;;;;6188581;23;20646;-81
2022/12/03 01:17:13;;;;;;;19.65;12.40;;;4.30;99.90;;;;;;6211675;23;20139;-82
2022/12/03 01:19:43;;;;;;;21.90;12.85;;;4.20;99.90;;;;;;6186797;23;20016;-85
2022/12/03 01:22:09;;;;;;;20.60;12.93;;;4.20;99.90;;;;;;6211050;23;20048;-86
2022/12/03 01:24:35;;;;;;;21.40;12.85;;;4.10;99.90;;;;;;6210290;23;20024;-83
2022/12/03 01:27:00;;;;;;;21.55;13.18;;;4.20;99.90;;;;;;6208573;23;20156;-84
2022/12/03 01:29:26;;;;;;;21.00;14.07;;;4.10;99.90;;;;;;6184223;23;20024;-83
2022/12/03 01:34:36;;;;;;;24.33;13.60;;;4.20;99.90;;;;;;6211289;23;20051;-85
2022/12/03 01:37:02;;;;;;;22.30;13.60;;;4.10;99.90;;;;;;6162118;23;20020;-85
2022/12/03 01:43:09;;;;;;;27.33;13.45;;;4.10;99.90;;;;;;6219117;23;20388;-84
2022/12/03 01:45:35;;;;;;;21.67;13.75;;;4.20;99.90;;;;;;6191122;23;20028;-83
2022/12/03 01:48:00;;;;;;;22.10;14.48;;;4.10;99.90;;;;;;6212873;23;20077;-83
2022/12/03 01:50:31;;;;;;;23.65;14.50;;;4.20;99.90;;;;;;6184807;23;20017;-84
2022/12/03 01:53:01;;;;;;;25.23;13.77;;;4.20;99.90;;;;;;6208224;23;20012;-84
2022/12/03 01:55:27;;;;;;;21.92;14.73;;;4.20;99.90;;;;;;6183317;23;20016;-85
2022/12/03 01:58:00;;;;;;;25.45;14.40;;;4.00;99.90;;;;;;6184981;23;20012;-86
2022/12/03 02:00:28;;;;;;;25.48;14.65;;;4.00;99.90;;;;;;6210690;23;20100;-82
2022/12/03 02:03:06;;;;;;;24.65;14.77;;;4.00;99.90;;;;;;6184401;23;20083;-83
2022/12/03 02:05:32;;;;;;;26.45;14.90;;;4.20;99.90;;;;;;6191349;23;20023;-81
2022/12/03 02:07:59;;;;;;;23.42;14.60;;;4.00;99.90;;;;;;6193051;23;20023;-82
2022/12/03 02:13:54;;;;;;;24.23;14.73;;;4.00;99.90;;;;;;6211125;23;20055;-84
2022/12/03 02:16:20;;;;;;;24.92;14.80;;;4.00;99.90;;;;;;6211116;23;20022;-84
2022/12/03 02:18:46;;;;;;;23.58;14.52;;;4.00;99.90;;;;;;6184046;23;20119;-82
2022/12/03 02:21:35;;;;;;;24.35;14.85;;;4.00;99.90;;;;;;6161744;23;20017;-84
2022/12/03 02:24:25;;;;;;;25.30;14.57;;;4.10;99.90;;;;;;6093984;23;20010;-84
2022/12/03 02:26:50;;;;;;;24.13;14.25;;;4.00;99.90;;;;;;6094931;23;20034;-85
2022/12/03 02:29:16;;;;;;;24.45;14.32;;;4.10;99.90;;;;;;6094066;23;20366;-83
2022/12/03 02:31:43;;;;;;;23.40;15.27;;;4.10;99.90;;;;;;6094061;23;20018;-84
2022/12/03 02:34:10;;;;;;;25.40;15.27;;;4.10;99.90;;;;;;6095101;23;20022;-85
2022/12/03 02:36:37;;;;;;;24.90;14.93;;;4.00;99.90;;;;;;6096895;23;20132;-85
2022/12/03 02:39:04;;;;;;;22.70;14.75;;;4.10;99.90;;;;;;6118566;23;20319;-83
2022/12/03 02:44:15;;;;;;;27.15;15.50;;;4.10;99.90;;;;;;6122047;23;20022;-82
2022/12/03 02:46:41;;;;;;;26.40;14.52;;;3.90;99.90;;;;;;6092181;23;20580;-83
2022/12/03 02:49:07;;;;;;;25.35;14.70;;;3.90;99.90;;;;;;6117349;23;20319;-84
2022/12/03 02:51:33;;;;;;;27.15;15.20;;;4.00;99.90;;;;;;6069282;23;20342;-84
2022/12/03 02:53:59;;;;;;;24.48;15.27;;;3.90;99.90;;;;;;6092006;23;20029;-83
2022/12/03 02:56:28;;;;;;;25.95;14.95;;;3.90;99.90;;;;;;6093579;23;20018;-83
2022/12/03 02:58:58;;;;;;;21.38;13.30;;;4.00;99.90;;;;;;6071002;23;20046;-83
2022/12/03 03:01:24;;;;;;;25.75;14.88;;;3.90;99.90;;;;;;6156831;23;20017;-86
2022/12/03 03:03:52;;;;;;;21.67;14.23;;;4.00;99.90;;;;;;6187653;23;20528;-84
2022/12/03 03:06:19;;;;;;;22.63;14.55;;;3.90;99.90;;;;;;6163048;23;20016;-85
2022/12/03 03:08:45;;;;;;;24.33;15.07;;;4.00;99.90;;;;;;6185977;23;20020;-84
2022/12/03 03:11:11;;;;;;;24.27;14.27;;;4.00;99.90;;;;;;6187380;23;20020;-83
2022/12/03 03:13:38;;;;;;;25.00;15.38;;;3.90;99.90;;;;;;6187940;23;20417;-83
2022/12/03 03:16:06;;;;;;;25.08;15.13;;;3.90;99.90;;;;;;6187773;23;20078;-85
2022/12/03 03:18:32;;;;;;;24.05;14.82;;;3.90;99.90;;;;;;6187750;23;20103;-82
2022/12/03 03:20:58;;;;;;;26.05;15.00;;;3.80;99.90;;;;;;6185405;23;20021;-82
2022/12/03 03:23:24;;;;;;;24.70;15.10;;;3.80;99.90;;;;;;6182966;23;20082;-83
2022/12/03 03:26:15;;;;;;;23.85;14.90;;;3.60;99.90;;;;;;6161311;23;20055;-82
2022/12/03 03:28:47;;;;;;;25.73;15.93;;;3.70;99.90;;;;;;6184530;23;20028;-85
2022/12/03 03:31:16;;;;;;;23.67;14.68;;;3.70;99.90;;;;;;6186521;23;20079;-82
2022/12/03 03:33:45;;;;;;;23.33;15.82;;;3.70;99.90;;;;;;6160507;23;20021;-86
2022/12/03 03:36:13;;;;;;;25.83;15.40;;;3.60;99.90;;;;;;6183303;23;20012;-81
2022/12/03 03:38:39;;;;;;;24.25;14.88;;;3.70;99.90;;;;;;6155997;23;20012;-85
2022/12/03 03:41:06;;;;;;;25.45;14.85;;;3.70;99.90;;;;;;6182680;23;20354;-81
2022/12/03 03:43:34;;;;;;;25.02;15.73;;;3.70;99.90;;;;;;6185487;23;20337;-86
2022/12/03 03:46:02;;;;;;;24.77;15.30;;;3.70;99.90;;;;;;6183671;23;20638;-82
2022/12/03 03:48:28;;;;;;;22.38;13.85;;;3.70;99.90;;;;;;6157951;23;20016;-82
2022/12/03 03:50:55;;;;;;;25.63;14.90;;;3.70;99.90;;;;;;6156924;23;20100;-85
2022/12/03 03:53:22;;;;;;;28.15;14.73;;;3.60;99.90;;;;;;6158175;23;20018;-84
2022/12/03 03:55:48;;;;;;;25.67;15.38;;;3.60;99.90;;;;;;6184051;23;20096;-85
2022/12/03 03:58:14;;;;;;;25.60;15.13;;;3.70;99.90;;;;;;6157870;23;20427;-83
2022/12/03 04:00:44;;;;;;;26.83;16.33;;;3.60;99.90;;;;;;6157409;23;20016;-83
2022/12/03 04:03:10;;;;;;;27.13;16.00;;;3.70;99.90;;;;;;6184305;23;20025;-81
2022/12/03 04:05:36;;;;;;;24.48;15.05;;;3.60;99.90;;;;;;6209843;23;20012;-84
2022/12/03 04:08:01;;;;;;;25.92;15.55;;;3.70;99.90;;;;;;6184031;23;20066;-85
2022/12/03 04:13:11;;;;;;;25.90;16.13;;;3.50;99.90;;;;;;6196422;23;20424;-81
2022/12/03 04:15:37;;;;;;;27.25;17.20;;;3.60;99.90;;;;;;6164777;23;20047;-83
2022/12/03 04:20:47;;;;;;;27.05;15.57;;;3.50;99.90;;;;;;6208988;23;20361;-84
2022/12/03 04:23:13;;;;;;;25.52;15.90;;;3.60;99.90;;;;;;6207697;23;20119;-85
2022/12/03 04:36:39;;;;;;;26.95;16.40;;;3.50;99.90;;;;;;6208780;23;20023;-81
2022/12/03 04:39:05;;;;;;;27.23;16.35;;;3.40;99.90;;;;;;6185429;23;20052;-87
2022/12/03 04:41:31;;;;;;;26.38;16.98;;;3.40;99.90;;;;;;6211686;23;20016;-83
2022/12/03 04:46:41;;;;;;;26.75;15.88;;;3.50;99.90;;;;;;6212636;23;20048;-82
2022/12/03 04:49:06;;;;;;;30.08;16.63;;;3.40;99.90;;;;;;6187386;23;20335;-85
2022/12/03 04:51:32;;;;;;;30.15;16.58;;;3.30;99.90;;;;;;6187556;23;20396;-83
2022/12/03 04:53:58;;;;;;;29.20;16.67;;;3.40;99.90;;;;;;6210795;23;20059;-85
2022/12/03 04:56:23;;;;;;;28.77;15.95;;;3.40;99.90;;;;;;6210787;23;20023;-84
2022/12/03 04:58:49;;;;;;;26.52;16.90;;;3.40;99.90;;;;;;6212313;23;20331;-84
2022/12/03 05:01:14;;;;;;;27.83;16.25;;;3.40;99.90;;;;;;6213780;23;20051;-84
2022/12/03 05:03:40;;;;;;;27.20;15.93;;;3.30;99.90;;;;;;6189242;23;20032;-83
2022/12/03 05:06:07;;;;;;;26.83;16.20;;;3.40;99.90;;;;;;6188446;23;20005;-84
2022/12/03 05:08:33;;;;;;;28.27;16.85;;;3.40;99.90;;;;;;6189203;23;20474;-81
2022/12/03 05:10:58;;;;;;;28.63;16.75;;;3.30;99.90;;;;;;6213868;23;20013;-83
2022/12/03 05:13:24;;;;;;;24.92;15.35;;;3.20;99.90;;;;;;6183935;23;20019;-86
2022/12/03 05:15:50;;;;;;;28.38;16.83;;;3.40;99.90;;;;;;6207644;23;20090;-85
2022/12/03 05:18:16;;;;;;;26.67;16.48;;;3.40;99.90;;;;;;6182432;23;20024;-85
2022/12/03 05:20:41;;;;;;;28.15;17.27;;;3.40;99.90;;;;;;6208695;23;20024;-87
2022/12/03 05:23:09;;;;;;;27.88;16.35;;;3.30;99.90;;;;;;6181088;23;20012;-82
2022/12/03 05:25:34;;;;;;;30.80;17.27;;;3.30;99.90;;;;;;6206633;23;20027;-83
2022/12/03 05:28:00;;;;;;;28.65;16.42;;;3.40;99.90;;;;;;6182922;23;20088;-82
2022/12/03 05:30:26;;;;;;;25.50;15.68;;;3.40;99.90;;;;;;6182965;23;20017;-85
2022/12/03 05:32:52;;;;;;;26.40;16.05;;;3.40;99.90;;;;;;6208727;23;20016;-82
2022/12/03 05:35:18;;;;;;;28.60;16.52;;;3.40;99.90;;;;;;6185456;23;20086;-83
2022/12/03 05:37:44;;;;;;;31.45;16.67;;;3.30;99.90;;;;;;6209148;23;20087;-84
2022/12/03 05:40:11;;;;;;;30.00;16.42;;;3.30;99.90;;;;;;6208144;23;20059;-86
2022/12/03 05:45:23;;;;;;;26.85;16.40;;;3.30;99.90;;;;;;6207700;23;20016;-83
2022/12/03 05:47:51;;;;;;;28.08;15.35;;;3.30;99.90;;;;;;6182583;23;20016;-84
2022/12/03 05:50:20;;;;;;;27.77;16.95;;;3.30;99.90;;;;;;6210344;23;20307;-84
2022/12/03 05:52:46;;;;;;;27.27;15.50;;;3.30;99.90;;;;;;6183793;23;20012;-85
2022/12/03 05:55:22;;;;;;;26.42;16.15;;;3.30;99.90;;;;;;6158313;23;20320;-84
2022/12/03 05:57:48;;;;;;;27.60;16.60;;;3.30;99.90;;;;;;6184376;23;20543;-81
2022/12/03 06:00:17;;;;;;;28.08;16.45;;;3.30;99.90;;;;;;6186017;23;20072;-85
2022/12/03 06:02:43;;;;;;;26.52;15.70;;;3.30;99.90;;;;;;6186568;23;20012;-86
2022/12/03 06:05:10;;;;;;;29.98;16.63;;;3.30;99.90;;;;;;6184727;23;20093;-86
2022/12/03 06:07:37;;;;;;;31.33;16.27;;;3.30;99.90;;;;;;6208784;23;20013;-83
2022/12/03 06:10:05;;;;;;;30.40;16.60;;;3.20;99.90;;;;;;6185636;23;20035;-85
2022/12/03 06:12:31;;;;;;;29.27;16.10;;;3.20;99.90;;;;;;6207148;23;20054;-83
2022/12/03 06:14:58;;;;;;;30.73;17.00;;;3.20;99.90;;;;;;6206489;23;20364;-84
2022/12/03 06:17:24;;;;;;;27.08;15.60;;;3.20;99.90;;;;;;6195686;23;20035;-82
2022/12/03 06:19:49;;;;;;;25.85;16.40;;;3.20;99.90;;;;;;6182651;23;20365;-82
2022/12/03 06:22:15;;;;;;;31.10;17.00;;;3.30;99.90;;;;;;6184891;23;20306;-85
2022/12/03 06:24:42;;;;;;;27.90;15.85;;;3.30;99.90;;;;;;6161469;23;20083;-82
2022/12/03 06:27:08;;;;;;;27.98;15.85;;;3.30;99.90;;;;;;6213049;23;20013;-84
2022/12/03 06:29:34;;;;;;;30.00;16.73;;;3.30;99.90;;;;;;6164536;23;20020;-85
2022/12/03 06:32:00;;;;;;;27.63;16.25;;;3.30;99.90;;;;;;6185879;23;20024;-84
2022/12/03 06:34:25;;;;;;;26.35;15.73;;;3.20;99.90;;;;;;6186055;23;20323;-83
2022/12/03 06:36:51;;;;;;;28.63;15.82;;;3.20;99.90;;;;;;6186108;23;20020;-83
2022/12/03 06:39:17;;;;;;;29.00;16.00;;;3.40;99.90;;;;;;6159273;23;20023;-81
2022/12/03 06:41:43;;;;;;;26.77;15.10;;;3.20;99.90;;;;;;6158457;23;20009;-82
2022/12/03 06:44:09;;;;;;;28.67;16.08;;;3.20;99.90;;;;;;6159972;23;20321;-85
2022/12/03 06:46:35;;;;;;;28.58;15.30;;;3.30;99.90;;;;;;6183524;23;20016;-81
2022/12/03 06:49:00;;;;;;;27.17;15.52;;;3.20;99.90;;;;;;6211654;23;20100;-84
2022/12/03 06:51:26;;;;;;;29.15;15.80;;;3.20;99.90;;;;;;6161014;23;20051;-83
2022/12/03 06:53:52;;;;;;;26.35;15.48;;;3.10;99.90;;;;;;6160768;23;20028;-82
2022/12/03 06:56:18;;;;;;;26.00;15.65;;;3.20;99.90;;;;;;6186363;23;20128;-83
2022/12/03 06:58:43;;;;;;;24.65;15.15;;;3.20;99.90;;;;;;6215863;23;20039;-83
2022/12/03 07:01:09;;;;;;;29.98;15.45;;;3.20;99.90;;;;;;6188712;23;20066;-80
2022/12/03 07:03:36;;;;;;;23.48;13.77;;;3.10;99.90;;;;;;6163665;23;20016;-82
2022/12/03 07:06:03;;;;;;;24.55;13.93;;;3.20;99.90;;;;;;6159084;23;20043;-84
2022/12/03 07:08:28;;;;;;;24.65;14.23;;;3.10;99.90;;;;;;6158988;23;20024;-82
2022/12/03 07:10:54;;;;;;;26.85;14.52;;;3.20;99.90;;;;;;6185724;23;20016;-80
2022/12/03 07:13:20;;;;;;;29.52;14.50;;;3.10;99.90;;;;;;6184412;23;20020;-84
2022/12/03 07:15:46;;;;;;;26.27;16.08;;;3.20;99.90;;;;;;6161895;23;20027;-81
2022/12/03 07:18:11;;;;;;;25.08;14.45;;;3.10;99.90;;;;;;6204909;23;20344;-85
2022/12/03 07:20:37;;;;;;;25.83;13.70;;;3.10;99.90;;;;;;6187265;23;20367;-82
2022/12/03 07:23:03;;;;;;;23.73;13.60;;;3.00;99.90;;;;;;6185071;23;20083;-79
2022/12/03 07:25:28;;;;;;;27.38;15.40;;;3.00;99.90;;;;;;6209908;23;20087;-80
2022/12/03 07:27:54;;;;;;;26.98;14.95;;;3.00;99.90;;;;;;6212038;23;20092;-81
2022/12/03 07:30:20;;;;;;;26.65;14.68;;;3.00;99.90;;;;;;6212890;23;20028;-82
2022/12/03 07:32:46;;;;;;;30.77;15.77;;;3.00;99.90;;;;;;6185197;23;20020;-83
2022/12/03 07:35:17;;;;;;;27.83;16.45;;;3.00;99.90;;;;;;6184926;23;20332;-82
2022/12/03 07:37:42;;;;;;;28.98;15.52;;;2.90;99.90;;;;;;6210210;23;20012;-81
2022/12/03 07:40:10;;;;;;;28.10;15.20;;;3.10;99.90;;;;;;6208662;23;20385;-82
2022/12/03 07:42:36;;;;;;;23.88;14.45;;;3.00;99.90;;;;;;6208794;23;20021;-82
2022/12/03 07:45:02;;;;;;;28.67;15.98;;;3.00;99.90;;;;;;6183150;23;20008;-80
2022/12/03 07:47:28;;;;;;;27.83;15.82;;;3.00;99.90;;;;;;6211657;23;20055;-82
2022/12/03 07:49:53;;;;;;;32.05;15.63;;;2.90;99.90;;;;;;6184640;23;20028;-84
2022/12/03 07:52:19;;;;;;;28.90;15.70;;;3.00;99.90;;;;;;6211931;23;20009;-81
2022/12/03 07:54:45;;;;;;;32.05;15.82;;;2.90;99.90;;;;;;6183888;23;20475;-85
2022/12/03 08:00:55;;;;;;;27.77;16.20;;;3.00;99.90;;;;;;6211334;23;20047;-82
2022/12/03 08:03:21;;;;;;;25.85;14.95;;;2.90;99.90;;;;;;6213249;23;20055;-82
2022/12/03 08:05:47;;;;;;;31.20;16.98;;;2.90;99.90;;;;;;6186772;23;20016;-84
2022/12/03 08:08:13;;;;;;;27.45;17.02;;;2.90;99.90;;;;;;6213196;23;20084;-83
2022/12/03 08:10:38;;;;;;;26.42;15.27;;;2.80;99.90;;;;;;6213185;23;20017;-85
2022/12/03 08:13:12;;;;;;;29.05;16.60;;;2.90;99.90;;;;;;6214923;23;20040;-82
2022/12/03 08:15:38;;;;;;;28.92;16.35;;;2.80;99.90;;;;;;6212987;23;20023;-83
2022/12/03 08:18:11;;;;;;;32.35;16.17;;;2.90;99.90;;;;;;6210751;23;20021;-81
2022/12/03 08:20:39;;;;;;;25.90;14.48;;;2.90;99.90;;;;;;6208989;23;20021;-82
2022/12/03 08:23:26;;;;;;;27.17;14.95;;;2.90;99.90;;;;;;6210636;23;20017;-82
2022/12/03 08:26:21;;;;;;;29.08;15.43;;;2.90;99.90;;;;;;6209611;23;20316;-83
2022/12/03 08:28:47;;;;;;;30.77;16.42;;;2.90;99.90;;;;;;6213445;23;20067;-79
2022/12/03 08:31:22;;;;;;;32.08;16.45;;;2.80;99.90;;;;;;6212217;23;20012;-83
2022/12/03 08:33:53;;;;;;;27.80;14.50;;;2.90;99.90;;;;;;6209266;23;20020;-83
2022/12/03 08:36:24;;;;;;;31.98;16.45;;;2.80;99.90;;;;;;6209048;23;20494;-85
2022/12/03 08:39:01;;;;;;;31.48;16.00;;;2.80;99.90;;;;;;6206859;23;20013;-81
2022/12/03 08:44:27;;;;;;;30.60;15.52;;;2.80;99.90;;;;;;6213020;23;20051;-81
2022/12/03 08:47:05;;;;;;;29.77;16.58;;;2.70;99.90;;;;;;6211712;23;20036;-85
2022/12/03 08:49:31;;;;;;;31.45;16.02;;;2.70;99.90;;;;;;6187566;23;20104;-81
2022/12/03 08:52:00;;;;;;;32.83;16.45;;;2.80;99.90;;;;;;6212166;23;20048;-81
2022/12/03 08:54:26;;;;;;;30.42;18.85;;;2.80;99.90;;;;;;6185815;23;20027;-84
2022/12/03 08:56:52;;;;;;;30.83;17.27;;;2.70;99.90;;;;;;6211455;23;20023;-84
2022/12/03 08:59:29;;;;;;;31.08;16.45;;;2.70;99.90;;;;;;6185894;23;20087;-85
2022/12/03 09:01:56;;;;;;;29.02;16.30;;;2.80;99.90;;;;;;6162615;23;20048;-83
2022/12/03 09:04:44;;;;;;;30.45;17.30;;;2.70;99.90;;;;;;6212691;23;20328;-83
2022/12/03 09:07:10;;;;;;;30.77;17.15;;;2.60;99.90;;;;;;6217377;23;20098;-82
2022/12/03 09:09:36;;;;;;;31.23;16.35;;;2.80;99.90;;;;;;6191871;23;20017;-84
2022/12/03 09:16:12;;;;;;;34.28;16.90;;;2.70;99.90;;;;;;6230247;23;20073;-80
2022/12/03 09:18:38;;;;;;;33.22;18.10;;;2.70;99.90;;;;;;6189881;23;20020;-83
2022/12/03 09:21:04;;;;;;;33.28;17.50;;;2.70;99.90;;;;;;6190111;23;20021;-83
2022/12/03 09:23:29;;;;;;;34.65;18.45;;;2.70;99.90;;;;;;6186728;23;20004;-81
2022/12/03 09:25:55;;;;;;;32.47;17.67;;;2.60;99.90;;;;;;6210977;23;20017;-81
2022/12/03 09:28:21;;;;;;;37.05;20.50;;;2.70;99.90;;;;;;6212059;23;20327;-80
2022/12/03 09:30:46;;;;;;;31.70;17.20;;;2.70;99.90;;;;;;6210873;23;20088;-81
2022/12/03 09:33:12;;;;;;;34.47;18.52;;;2.80;99.90;;;;;;6184324;23;20082;-81
2022/12/03 09:35:38;;;;;;;32.47;17.42;;;2.60;99.90;;;;;;6183307;23;20095;-82
2022/12/03 09:38:04;;;;;;;39.92;19.75;;;2.70;99.90;;;;;;6207500;23;20448;-84
2022/12/03 09:40:29;;;;;;;33.90;18.35;;;2.60;99.90;;;;;;6209543;23;20043;-85
2022/12/03 09:43:34;;;;;;;34.65;20.55;;;2.70;99.90;;;;;;6209595;23;20020;-87
2022/12/03 09:46:04;;;;;;;32.45;18.80;;;2.60;99.90;;;;;;6210474;23;20325;-84
2022/12/03 09:48:30;;;;;;;34.17;19.67;;;2.60;99.90;;;;;;6210125;23;20432;-85
2022/12/03 09:50:56;;;;;;;31.15;17.60;;;2.50;99.90;;;;;;6210658;23;20024;-83
2022/12/03 09:53:25;;;;;;;34.75;18.25;;;2.60;99.90;;;;;;6208751;23;20401;-83
2022/12/03 09:55:51;;;;;;;31.60;17.95;;;2.60;99.90;;;;;;6183997;23;20040;-80
2022/12/03 09:58:18;;;;;;;32.97;18.55;;;2.60;99.90;;;;;;6210278;23;20377;-79
2022/12/03 10:00:49;;;;;;;32.67;17.92;;;2.70;99.90;;;;;;6185128;23;20017;-82
2022/12/03 10:03:19;;;;;;;33.47;18.20;;;2.60;99.90;;;;;;6210843;23;20024;-80
2022/12/03 10:05:45;;;;;;;30.40;17.05;;;2.70;99.90;;;;;;6209822;23;20016;-78
2022/12/03 10:08:16;;;;;;;35.15;18.80;;;2.70;99.90;;;;;;6212264;23;20420;-80
2022/12/03 10:10:43;;;;;;;32.35;18.15;;;2.60;99.90;;;;;;6212348;23;20461;-79
2022/12/03 10:13:20;;;;;;;34.90;18.65;;;2.70;99.90;;;;;;6187057;23;20023;-84
2022/12/03 10:15:47;;;;;;;33.78;18.20;;;2.60;99.90;;;;;;6216408;23;20064;-80
2022/12/03 10:18:20;;;;;;;32.10;17.92;;;2.60;99.90;;;;;;6242328;22;20016;-78
2022/12/03 10:20:46;;;;;;;30.73;17.88;;;2.60;99.90;;;;;;6246459;23;20385;-84
2022/12/03 10:23:27;;;;;;;32.25;17.55;;;2.50;99.90;;;;;;6218153;23;20008;-81
2022/12/03 10:25:59;;;;;;;32.22;18.13;;;2.60;99.90;;;;;;6193222;23;20019;-83
2022/12/03 10:29:03;;;;;;;34.22;19.02;;;2.60;99.90;;;;;;6218210;23;20012;-79
2022/12/03 10:31:35;;;;;;;35.75;18.30;;;2.60;99.90;;;;;;6223769;23;20012;-81
2022/12/03 10:34:01;;;;;;;33.25;18.77;;;2.50;99.90;;;;;;6225731;23;20082;-81
2022/12/03 10:36:30;;;;;;;36.88;19.10;;;2.50;99.90;;;;;;6244123;23;20020;-81
2022/12/03 10:39:09;;;;;;;31.20;18.08;;;2.60;99.90;;;;;;6215570;23;20544;-80
2022/12/03 10:42:12;;;;;;;34.67;17.17;;;2.60;99.90;;;;;;6217974;23;20596;-82
2022/12/03 10:44:37;;;;;;;32.17;18.20;;;2.70;99.90;;;;;;6243365;23;20074;-81
2022/12/03 10:47:06;;;;;;;33.83;18.13;;;2.70;99.90;;;;;;6215374;23;20046;-82
2022/12/03 10:49:32;;;;;;;34.60;18.88;;;2.80;99.90;;;;;;6213590;23;20016;-81
2022/12/03 10:51:58;;;;;;;34.40;20.02;;;2.70;99.90;;;;;;6190254;23;20023;-84
2022/12/03 10:54:26;;;;;;;36.25;18.48;;;2.70;99.90;;;;;;6214158;23;20506;-80
2022/12/03 11:00:32;;;;;;;34.67;16.88;;;2.70;99.90;;;;;;6242358;23;20023;-83
2022/12/03 11:02:58;;;;;;;32.72;17.55;;;2.80;99.90;;;;;;6214903;23;20012;-81
2022/12/03 11:05:27;;;;;;;39.03;18.55;;;2.80;99.90;;;;;;6188775;23;20408;-80
2022/12/03 11:07:53;;;;;;;33.50;17.83;;;2.90;99.90;;;;;;6214359;23;20016;-81
2022/12/03 11:10:19;;;;;;;33.17;18.00;;;2.80;99.90;;;;;;6186975;23;20020;-82
2022/12/03 11:13:22;;;;;;;33.83;19.30;;;2.80;99.90;;;;;;6164781;23;20012;-80
2022/12/03 11:15:48;;;;;;;34.30;19.75;;;2.80;99.90;;;;;;6242099;23;20008;-81
2022/12/03 11:18:36;;;;;;;35.08;18.30;;;2.70;99.90;;;;;;6241220;22;20009;-82
2022/12/03 11:21:10;;;;;;;27.63;15.52;;;2.70;99.90;;;;;;6215078;23;20024;-83
2022/12/03 11:23:45;;;;;;;36.17;19.30;;;2.70;99.90;;;;;;6189870;23;20023;-85
2022/12/03 11:26:16;;;;;;;33.13;17.45;;;2.60;99.90;;;;;;6190077;23;20135;-78
2022/12/03 11:28:45;;;;;;;33.33;19.08;;;2.60;99.90;;;;;;6214708;23;20416;-80
2022/12/03 11:31:36;;;;;;;36.08;19.23;;;2.70;99.90;;;;;;6188746;23;20307;-81
2022/12/03 11:34:17;;;;;;;36.67;19.10;;;2.70;99.90;;;;;;6215056;23;20023;-79
2022/12/03 11:37:08;;;;;;;35.17;20.05;;;2.60;99.90;;;;;;6186732;23;20427;-80
2022/12/03 11:40:15;;;;;;;36.88;19.30;;;2.60;99.90;;;;;;6187455;23;20030;-82
2022/12/03 11:42:44;;;;;;;40.05;19.58;;;2.70;99.90;;;;;;6155731;23;20012;-81
2022/12/03 11:45:16;;;;;;;37.33;19.13;;;2.60;99.90;;;;;;6188921;23;20012;-81
2022/12/03 11:47:41;;;;;;;37.20;20.27;;;2.60;99.90;;;;;;6214123;23;20078;-82
2022/12/03 11:50:22;;;;;;;27.35;15.45;;;2.60;99.90;;;;;;6237780;23;20487;-78
2022/12/03 11:53:07;;;;;;;35.05;19.20;;;2.70;99.90;;;;;;6187393;23;20031;-82
2022/12/03 11:55:39;;;;;;;36.65;18.98;;;2.70;99.90;;;;;;6187630;23;20012;-80
2022/12/03 11:58:29;;;;;;;35.28;19.77;;;2.70;99.90;;;;;;6190220;23;20030;-82
2022/12/03 12:00:58;;;;;;;36.65;19.67;;;2.70;99.90;;;;;;6192040;23;20024;-78
2022/12/03 12:03:29;;;;;;;35.53;19.58;;;2.70;99.90;;;;;;6201039;23;20016;-78
2022/12/03 12:06:07;;;;;;;35.22;18.33;;;2.70;99.90;;;;;;6248147;23;20042;-82
2022/12/03 12:08:35;;;;;;;36.40;18.98;;;2.70;99.90;;;;;;6189522;23;20016;-79
2022/12/03 12:11:01;;;;;;;35.15;20.70;;;2.70;99.90;;;;;;6240164;23;20020;-81
2022/12/03 12:13:30;;;;;;;40.35;20.00;;;2.70;99.90;;;;;;6213236;23;20016;-80
2022/12/03 12:16:04;;;;;;;38.45;20.73;;;2.70;99.90;;;;;;6240640;23;20016;-79
2022/12/03 12:18:44;;;;;;;33.42;18.27;;;2.60;99.90;;;;;;6162400;23;20091;-81
2022/12/03 12:21:41;;;;;;;35.85;21.80;;;2.60;99.90;;;;;;6183195;23;20116;-81
2022/12/03 12:24:29;;;;;;;41.22;20.65;;;2.50;99.90;;;;;;6210475;23;20024;-80
2022/12/03 12:27:13;;;;;;;37.75;19.77;;;2.60;99.90;;;;;;6213524;23;20004;-81
2022/12/03 12:29:41;;;;;;;37.13;19.20;;;2.60;99.90;;;;;;6161584;23;20264;-80
2022/12/03 12:32:11;;;;;;;35.95;19.25;;;2.60;99.90;;;;;;6160913;23;20416;-82
2022/12/03 12:34:49;;;;;;;32.47;19.15;;;2.70;99.90;;;;;;6161005;23;20024;-78
2022/12/03 12:37:46;;;;;;;36.65;20.23;;;2.60;99.90;;;;;;6137386;23;20016;-82
2022/12/03 12:40:14;;;;;;;33.40;17.80;;;2.60;99.90;;;;;;6186558;23;20021;-83
2022/12/03 12:43:09;;;;;;;36.33;20.52;;;2.60;99.90;;;;;;6161534;23;20040;-82
2022/12/03 12:45:40;;;;;;;32.85;19.27;;;2.50;99.90;;;;;;6173484;23;20012;-81
2022/12/03 12:48:08;;;;;;;36.35;20.17;;;2.50;99.90;;;;;;6213536;23;20059;-80
2022/12/03 12:50:39;;;;;;;37.63;20.48;;;2.50;99.90;;;;;;6213650;23;20019;-79
2022/12/03 12:53:24;;;;;;;35.97;20.00;;;2.50;99.90;;;;;;6162290;23;20378;-82
2022/12/03 12:56:26;;;;;;;38.63;21.42;;;2.50;99.90;;;;;;6165012;23;20023;-81
2022/12/03 12:58:53;;;;;;;36.08;19.67;;;2.50;99.90;;;;;;6179726;23;20040;-82
2022/12/03 13:01:30;;;;;;;37.65;20.23;;;2.50;99.90;;;;;;6214466;23;20016;-80
2022/12/03 13:03:57;;;;;;;36.60;19.10;;;2.40;99.90;;;;;;6186990;23;20016;-80
2022/12/03 13:06:29;;;;;;;35.22;19.77;;;2.40;99.90;;;;;;6187260;23;20015;-83
2022/12/03 13:08:59;;;;;;;34.03;18.75;;;2.40;99.90;;;;;;6185109;23;20118;-80
2022/12/03 13:11:33;;;;;;;35.22;19.00;;;2.50;99.90;;;;;;6162122;23;20023;-82
2022/12/03 13:14:04;;;;;;;35.58;20.50;;;2.50;99.90;;;;;;6213038;23;20017;-80
2022/12/03 13:16:31;;;;;;;35.92;20.08;;;2.40;99.90;;;;;;6161246;23;20099;-83
2022/12/03 13:19:11;;;;;;;36.42;20.55;;;2.40;99.90;;;;;;6210267;23;20016;-80
2022/12/03 13:21:39;;;;;;;37.00;19.73;;;2.40;99.90;;;;;;6187425;23;20070;-80
2022/12/03 13:24:31;;;;;;;34.72;19.52;;;2.40;99.90;;;;;;6211097;23;20008;-79
2022/12/03 13:27:36;;;;;;;40.65;19.77;;;2.40;99.90;;;;;;6210075;23;20091;-82
2022/12/03 13:30:14;;;;;;;34.20;18.73;;;2.40;99.90;;;;;;6090586;23;20022;-79
2022/12/03 13:32:42;;;;;;;37.05;20.67;;;2.40;99.90;;;;;;6067444;23;20141;-82
2022/12/03 13:35:26;;;;;;;35.88;19.77;;;2.30;99.90;;;;;;6091578;23;20410;-84
2022/12/03 13:37:52;;;;;;;37.08;20.60;;;2.30;99.90;;;;;;6086748;23;20022;-81